Time;durP1;ratioP1;P1;durP2;ratioP2;P2;SDS_P1;SDS_P2;PMS_P1;PMS_P2;Temp;Humidity;BMP_temperature;BMP_pressure;BME280_temperature;BME280_humidity;BME280_pressure;Samples;Min_cycle;Max_cycle;Signal;HPM_P1;HPM_P2
2023/04/03 00:01:55;;;;;;;;;;;;;;;11.25;51.54;94027.38;5065518;23;20352;-74
2023/04/03 00:03:57;;;;;;;;;;;;;;;11.30;51.37;94018.97;5065850;23;19960;-77
2023/04/03 00:05:58;;;;;;;;;;;;;;;11.29;51.37;94012.88;5066125;23;19924;-75
2023/04/03 00:08:01;;;;;;;;;;;;;;;11.28;51.40;94019.13;5065119;23;19921;-77
2023/04/03 00:10:03;;;;;;;;;;;;;;;11.31;51.27;94013.50;5065063;23;19925;-76
2023/04/03 00:12:05;;;;;;;;;;;;;;;11.35;51.04;94009.53;5064742;23;19928;-74
2023/04/03 00:14:06;;;;;;;;;;;;;;;11.36;50.99;94008.56;5065248;23;19935;-75
2023/04/03 00:16:08;;;;;;;;;;;;;;;11.35;51.01;94006.13;5063199;23;19956;-75
2023/04/03 00:18:10;;;;;;;;;;;;;;;11.31;51.01;94000.41;5038806;23;19989;-75
2023/04/03 00:20:11;;;;;;;;;;;;;;;11.28;51.25;94001.59;5065146;23;20307;-74
2023/04/03 00:22:13;;;;;;;;;;;;;;;11.30;51.32;94000.59;5065044;23;19977;-74
2023/04/03 00:24:14;;;;;;;;;;;;;;;11.02;51.90;94002.03;5065978;23;20004;-73
2023/04/03 00:26:16;;;;;;;;;;;;;;;10.80;52.50;94008.94;5064836;23;19921;-74
2023/04/03 00:28:18;;;;;;;;;;;;;;;10.76;53.29;94001.63;5040837;23;19952;-75
2023/04/03 00:30:20;;;;;;;;;;;;;;;10.78;53.09;94000.44;5039497;23;19993;-73
2023/04/03 00:32:21;;;;;;;;;;;;;;;10.74;53.47;94006.22;5039867;23;19985;-74
2023/04/03 00:34:23;;;;;;;;;;;;;;;10.69;53.53;94000.69;5065731;23;19935;-74
2023/04/03 00:36:25;;;;;;;;;;;;;;;10.63;54.11;94004.84;5064490;23;19924;-73
2023/04/03 00:38:26;;;;;;;;;;;;;;;10.39;54.34;94011.06;5065474;23;19944;-73
2023/04/03 00:40:28;;;;;;;;;;;;;;;10.31;55.21;94009.31;5016354;23;19944;-75
2023/04/03 00:42:29;;;;;;;;;;;;;;;10.09;55.75;94010.06;5039964;23;19971;-75
2023/04/03 00:44:33;;;;;;;;;;;;;;;9.92;55.11;94015.41;5065763;23;19921;-74
2023/04/03 00:46:35;;;;;;;;;;;;;;;9.80;55.89;94012.34;5064346;23;19929;-75
2023/04/03 00:48:48;;;;;;;;;;;;;;;9.74;55.74;94014.84;5065834;23;19963;-74
2023/04/03 00:50:50;;;;;;;;;;;;;;;9.77;55.73;94010.09;5041072;23;20358;-74
2023/04/03 00:52:52;;;;;;;;;;;;;;;9.73;55.64;94008.00;5065603;23;20329;-75
2023/04/03 00:54:54;;;;;;;;;;;;;;;9.82;55.58;94010.38;5065471;23;19929;-74
2023/04/03 00:56:56;;;;;;;;;;;;;;;9.82;54.68;94017.41;5040396;23;19922;-69
2023/04/03 00:59:16;;;;;;;;;;;;;;;9.70;55.75;94022.22;5039833;23;19941;-74
2023/04/03 01:01:19;;;;;;;;;;;;;;;9.50;55.50;94021.00;5015639;23;20309;-73
2023/04/03 01:03:21;;;;;;;;;;;;;;;9.45;56.47;94028.53;5038927;23;20579;-74
2023/04/03 01:05:23;;;;;;;;;;;;;;;9.33;56.08;94022.84;5039932;23;19933;-75
2023/04/03 01:07:29;;;;;;;;;;;;;;;9.29;56.43;94019.75;5066207;23;19921;-74
2023/04/03 01:09:30;;;;;;;;;;;;;;;9.31;56.54;94023.00;5065556;23;19921;-71
2023/04/03 01:11:32;;;;;;;;;;;;;;;9.29;56.84;94016.31;5040206;23;19997;-70
2023/04/03 01:13:33;;;;;;;;;;;;;;;9.38;56.64;94020.56;5065495;23;19963;-71
2023/04/03 01:15:35;;;;;;;;;;;;;;;9.53;56.91;94018.03;5064200;23;19924;-70
2023/04/03 01:17:40;;;;;;;;;;;;;;;9.71;56.05;94023.03;5065702;23;20475;-70
2023/04/03 01:19:42;;;;;;;;;;;;;;;9.87;55.83;94016.91;5038969;23;20363;-71
2023/04/03 01:22:07;;;;;;;;;;;;;;;9.98;55.58;94016.50;5016425;23;19933;-70
2023/04/03 01:24:08;;;;;;;;;;;;;;;9.95;55.13;94015.06;5058172;23;20004;-75
2023/04/03 01:26:11;;;;;;;;;;;;;;;9.82;55.69;94023.47;5065348;23;19925;-75
2023/04/03 01:28:15;;;;;;;;;;;;;;;9.69;55.73;94004.88;5064980;23;19925;-72
2023/04/03 01:30:17;;;;;;;;;;;;;;;9.66;55.86;94020.09;5039286;23;20264;-74
2023/04/03 01:32:19;;;;;;;;;;;;;;;9.60;55.94;94025.03;5039086;23;20451;-74
2023/04/03 01:34:21;;;;;;;;;;;;;;;9.36;56.27;94019.91;5065643;23;19979;-74
2023/04/03 01:36:27;;;;;;;;;;;;;;;9.20;56.90;94021.56;5065532;23;19984;-74
2023/04/03 01:38:28;;;;;;;;;;;;;;;8.73;58.90;94018.84;5065490;23;19978;-75
2023/04/03 01:40:30;;;;;;;;;;;;;;;8.65;58.93;94014.47;5065354;23;20267;-71
2023/04/03 01:42:31;;;;;;;;;;;;;;;8.74;59.09;94015.28;5065690;23;19921;-73
2023/04/03 01:44:33;;;;;;;;;;;;;;;8.73;59.38;94021.47;5064166;23;19924;-74
2023/04/03 01:46:35;;;;;;;;;;;;;;;8.68;59.48;94019.34;5064280;23;20355;-74
2023/04/03 01:48:37;;;;;;;;;;;;;;;8.65;59.33;94014.47;5064453;23;19963;-73
2023/04/03 01:50:38;;;;;;;;;;;;;;;8.46;59.28;94020.00;5064439;23;20539;-74
2023/04/03 01:52:40;;;;;;;;;;;;;;;8.57;59.64;94019.69;5064341;23;19973;-73
2023/04/03 01:54:41;;;;;;;;;;;;;;;8.64;58.79;94027.69;5063951;23;20304;-76
2023/04/03 01:56:43;;;;;;;;;;;;;;;8.70;59.23;94030.44;5064093;23;20264;-74
2023/04/03 01:58:44;;;;;;;;;;;;;;;8.71;59.02;94020.81;5064389;23;20293;-73
2023/04/03 02:00:46;;;;;;;;;;;;;;;8.67;59.33;94022.13;5062973;23;19921;-75
2023/04/03 02:02:48;;;;;;;;;;;;;;;8.57;59.06;94025.72;5064825;23;19925;-73
2023/04/03 02:04:49;;;;;;;;;;;;;;;8.52;59.50;94020.19;5065456;23;19925;-74
2023/04/03 02:06:51;;;;;;;;;;;;;;;8.45;59.00;94016.56;5066023;23;20399;-72
2023/04/03 02:08:53;;;;;;;;;;;;;;;8.24;60.16;94013.59;5065640;23;20370;-74
2023/04/03 02:10:54;;;;;;;;;;;;;;;8.13;60.74;94023.38;5064649;23;19967;-73
2023/04/03 02:12:56;;;;;;;;;;;;;;;8.16;60.75;94017.00;5065191;23;19948;-74
2023/04/03 02:14:57;;;;;;;;;;;;;;;8.08;60.69;94019.59;5064238;23;19977;-73
2023/04/03 02:17:00;;;;;;;;;;;;;;;8.17;61.04;94018.63;5064517;23;19983;-74
2023/04/03 02:19:02;;;;;;;;;;;;;;;8.12;60.51;94024.34;5039677;23;19933;-72
2023/04/03 02:21:03;;;;;;;;;;;;;;;8.24;61.01;94029.25;5038600;23;19928;-73
2023/04/03 02:23:05;;;;;;;;;;;;;;;8.38;60.08;94018.97;5039280;23;19967;-71
2023/04/03 02:25:07;;;;;;;;;;;;;;;8.57;59.72;94012.66;5065117;23;20229;-69
2023/04/03 02:27:08;;;;;;;;;;;;;;;8.72;60.04;94006.78;5065327;23;20260;-70
2023/04/03 02:29:10;;;;;;;;;;;;;;;8.74;59.63;94007.44;5064711;23;19932;-69
2023/04/03 02:31:12;;;;;;;;;;;;;;;8.71;58.71;94002.53;5063725;23;19981;-69
2023/04/03 02:33:13;;;;;;;;;;;;;;;8.56;59.43;93997.16;5065356;23;20000;-70
2023/04/03 02:35:15;;;;;;;;;;;;;;;8.54;60.05;94006.94;5064990;23;19924;-69
2023/04/03 02:37:16;;;;;;;;;;;;;;;8.60;59.96;94001.91;5065210;23;19921;-69
2023/04/03 02:39:18;;;;;;;;;;;;;;;8.74;59.54;94000.41;5065311;23;19921;-71
2023/04/03 02:41:20;;;;;;;;;;;;;;;8.82;59.55;93997.00;5065207;23;19921;-70
2023/04/03 02:43:22;;;;;;;;;;;;;;;8.78;59.69;93993.06;5065532;23;19921;-71
2023/04/03 02:45:24;;;;;;;;;;;;;;;8.83;59.72;93996.00;5038478;23;19925;-70
2023/04/03 02:47:26;;;;;;;;;;;;;;;8.85;59.56;93996.66;5064750;23;20425;-71
2023/04/03 02:49:27;;;;;;;;;;;;;;;8.90;59.08;93994.34;5065070;23;19927;-70
2023/04/03 02:51:29;;;;;;;;;;;;;;;8.97;59.32;93994.50;5039728;23;20638;-70
2023/04/03 02:53:30;;;;;;;;;;;;;;;8.89;59.02;93992.72;5039258;23;19929;-69
2023/04/03 02:55:32;;;;;;;;;;;;;;;8.70;59.81;93986.06;5064673;23;20517;-71
2023/04/03 02:57:33;;;;;;;;;;;;;;;8.71;59.72;93989.47;5064803;23;19972;-74
2023/04/03 02:59:36;;;;;;;;;;;;;;;8.74;60.07;93982.13;5064022;23;19967;-72
2023/04/03 03:01:37;;;;;;;;;;;;;;;8.84;60.14;93984.59;5062895;23;19929;-74
2023/04/03 03:03:39;;;;;;;;;;;;;;;8.95;59.21;93978.19;5039066;23;19957;-75
2023/04/03 03:05:41;;;;;;;;;;;;;;;8.94;59.39;93982.59;5065162;23;20004;-73
2023/04/03 03:07:42;;;;;;;;;;;;;;;8.85;59.03;93978.38;5065397;23;19932;-73
2023/04/03 03:09:43;;;;;;;;;;;;;;;8.80;59.14;93981.47;5038569;23;20004;-73
2023/04/03 03:11:45;;;;;;;;;;;;;;;8.80;59.74;93980.66;5039043;23;19957;-74
2023/04/03 03:13:46;;;;;;;;;;;;;;;8.87;59.33;93984.25;5064791;23;20335;-74
2023/04/03 03:15:48;;;;;;;;;;;;;;;8.89;58.99;93977.06;5063900;23;19962;-73
2023/04/03 03:17:50;;;;;;;;;;;;;;;8.89;59.32;93971.84;5064779;23;19936;-74
2023/04/03 03:19:51;;;;;;;;;;;;;;;8.86;59.88;93981.78;5065614;23;20255;-74
2023/04/03 03:21:53;;;;;;;;;;;;;;;8.87;59.68;93972.97;5038709;23;19925;-75
2023/04/03 03:23:54;;;;;;;;;;;;;;;8.87;59.75;93973.78;5065352;23;19925;-73
2023/04/03 03:25:56;;;;;;;;;;;;;;;8.97;59.51;93978.81;5064563;23;19941;-75
2023/04/03 03:27:58;;;;;;;;;;;;;;;9.01;59.21;93973.13;5040756;23;19926;-75
2023/04/03 03:30:00;;;;;;;;;;;;;;;9.02;59.05;93982.56;5039907;23;19925;-74
2023/04/03 03:32:01;;;;;;;;;;;;;;;9.01;59.37;93970.50;5040440;23;19926;-72
2023/04/03 03:34:03;;;;;;;;;;;;;;;9.04;59.24;93969.34;5066304;23;19925;-72
2023/04/03 03:36:05;;;;;;;;;;;;;;;9.04;59.01;93973.78;5066506;23;19925;-75
2023/04/03 03:38:06;;;;;;;;;;;;;;;9.11;58.76;93972.09;5066688;23;19925;-70
2023/04/03 03:40:08;;;;;;;;;;;;;;;9.14;58.80;93979.59;5065865;23;19925;-71
2023/04/03 03:42:11;;;;;;;;;;;;;;;9.10;58.21;93984.38;5066313;23;19924;-68
2023/04/03 03:44:12;;;;;;;;;;;;;;;9.02;59.09;93974.72;5067050;23;20017;-70
2023/04/03 03:46:15;;;;;;;;;;;;;;;8.98;59.46;93985.69;5064631;23;20486;-71
2023/04/03 03:48:17;;;;;;;;;;;;;;;8.91;59.68;93980.31;5066551;23;19925;-69
2023/04/03 03:50:21;;;;;;;;;;;;;;;8.88;59.61;93972.00;5066445;23;19984;-69
2023/04/03 03:52:23;;;;;;;;;;;;;;;8.89;59.68;93981.47;5066548;23;20453;-70
2023/04/03 03:54:24;;;;;;;;;;;;;;;8.77;59.56;93983.59;5065876;23;19955;-70
2023/04/03 03:56:26;;;;;;;;;;;;;;;8.70;59.94;93993.09;5066264;23;19987;-72
2023/04/03 03:58:27;;;;;;;;;;;;;;;8.67;60.32;93983.78;5066392;23;19929;-70
2023/04/03 04:00:29;;;;;;;;;;;;;;;8.69;60.98;93987.06;5065633;23;19927;-70
2023/04/03 04:02:31;;;;;;;;;;;;;;;8.78;59.84;93977.41;5040891;23;20495;-71
2023/04/03 04:04:33;;;;;;;;;;;;;;;8.74;59.66;93981.31;5066832;23;20553;-72
2023/04/03 04:06:34;;;;;;;;;;;;;;;8.58;60.44;93982.97;5066393;23;19939;-71
2023/04/03 04:08:36;;;;;;;;;;;;;;;8.50;60.83;93985.59;5067079;23;20271;-72
2023/04/03 04:10:38;;;;;;;;;;;;;;;8.46;61.22;93979.06;5066943;23;19925;-71
2023/04/03 04:12:39;;;;;;;;;;;;;;;8.50;60.82;93988.19;5066710;23;20287;-75
2023/04/03 04:14:41;;;;;;;;;;;;;;;8.60;60.55;93983.63;5065915;23;20422;-75
2023/04/03 04:16:42;;;;;;;;;;;;;;;8.69;59.89;93986.22;5066342;23;19925;-76
2023/04/03 04:18:44;;;;;;;;;;;;;;;8.76;59.33;94000.25;5066776;23;19976;-74
2023/04/03 04:20:46;;;;;;;;;;;;;;;8.73;60.41;93998.81;5041000;23;19925;-76
2023/04/03 04:22:47;;;;;;;;;;;;;;;8.79;60.69;93997.31;5066562;23;19931;-75
2023/04/03 04:24:49;;;;;;;;;;;;;;;8.82;60.80;94000.41;5066814;23;19925;-76
2023/04/03 04:26:51;;;;;;;;;;;;;;;8.91;59.94;93998.59;5066709;23;20001;-74
2023/04/03 04:28:52;;;;;;;;;;;;;;;9.00;59.38;93997.59;5068078;23;20343;-79
2023/04/03 04:30:54;;;;;;;;;;;;;;;9.05;58.80;93993.66;5065414;23;19925;-76
2023/04/03 04:32:55;;;;;;;;;;;;;;;9.00;58.79;93992.38;5066312;23;19928;-76
2023/04/03 04:34:57;;;;;;;;;;;;;;;8.80;59.66;93991.13;5067572;23;19945;-76
2023/04/03 04:36:59;;;;;;;;;;;;;;;8.53;60.22;94013.16;5066816;23;20410;-78
2023/04/03 04:39:00;;;;;;;;;;;;;;;8.46;60.88;94018.22;5066095;23;20336;-77
2023/04/03 04:41:02;;;;;;;;;;;;;;;8.55;60.63;94014.63;5040949;23;20583;-76
2023/04/03 04:43:03;;;;;;;;;;;;;;;8.63;60.13;94013.81;5067217;23;19928;-77
2023/04/03 04:45:05;;;;;;;;;;;;;;;8.57;60.47;94010.06;5053981;23;19925;-75
2023/04/03 04:47:07;;;;;;;;;;;;;;;8.51;60.46;94010.69;5065892;23;19928;-76
2023/04/03 04:49:08;;;;;;;;;;;;;;;8.60;60.06;94012.34;5067439;23;19977;-76
2023/04/03 04:51:10;;;;;;;;;;;;;;;8.74;59.48;94012.66;5041397;23;20340;-77
2023/04/03 04:53:12;;;;;;;;;;;;;;;8.84;59.83;94017.69;5066552;23;19925;-74
2023/04/03 04:55:13;;;;;;;;;;;;;;;8.97;60.15;94024.06;5066241;23;20316;-76
2023/04/03 04:57:15;;;;;;;;;;;;;;;9.01;59.47;94027.97;5040770;23;19921;-76
2023/04/03 04:59:17;;;;;;;;;;;;;;;9.09;59.17;94028.94;5066465;23;19959;-77
2023/04/03 05:01:22;;;;;;;;;;;;;;;9.13;58.49;94025.00;5040281;23;19925;-75
2023/04/03 05:03:23;;;;;;;;;;;;;;;9.01;59.45;94030.59;5065893;23;20000;-77
2023/04/03 05:05:25;;;;;;;;;;;;;;;8.97;59.65;94031.06;5067311;23;20288;-72
2023/04/03 05:07:26;;;;;;;;;;;;;;;8.84;58.97;94031.59;5066490;23;19928;-72
2023/04/03 05:09:28;;;;;;;;;;;;;;;8.78;59.94;94037.47;5016489;23;19941;-72
2023/04/03 05:11:29;;;;;;;;;;;;;;;8.79;59.63;94036.47;5066073;23;19929;-74
2023/04/03 05:13:31;;;;;;;;;;;;;;;8.89;59.43;94042.34;5066764;23;19921;-71
2023/04/03 05:15:32;;;;;;;;;;;;;;;8.99;58.92;94045.63;5066138;23;20224;-74
2023/04/03 05:17:34;;;;;;;;;;;;;;;9.08;58.91;94042.97;5065795;23;19924;-73
2023/04/03 05:19:36;;;;;;;;;;;;;;;9.16;58.50;94054.25;5066619;23;19921;-71
2023/04/03 05:21:37;;;;;;;;;;;;;;;9.16;58.81;94050.81;5041048;23;20523;-73
2023/04/03 05:23:39;;;;;;;;;;;;;;;9.07;58.26;94047.38;5065914;23;19923;-72
2023/04/03 05:25:40;;;;;;;;;;;;;;;8.92;58.60;94047.25;5039686;23;20004;-71
2023/04/03 05:27:42;;;;;;;;;;;;;;;8.76;59.16;94055.09;5066408;23;19933;-74
2023/04/03 05:29:43;;;;;;;;;;;;;;;8.72;60.06;94051.19;5065689;23;19921;-73
2023/04/03 05:31:45;;;;;;;;;;;;;;;8.68;59.94;94042.84;5065250;23;19925;-70
2023/04/03 05:33:47;;;;;;;;;;;;;;;8.86;59.97;94050.50;5066224;23;20398;-72
2023/04/03 05:35:49;;;;;;;;;;;;;;;8.97;59.79;94057.19;5065726;23;19929;-71
2023/04/03 05:37:51;;;;;;;;;;;;;;;9.05;59.13;94041.50;5065886;23;19931;-72
2023/04/03 05:39:52;;;;;;;;;;;;;;;9.01;59.36;94037.59;5016970;23;19953;-72
2023/04/03 05:41:54;;;;;;;;;;;;;;;8.88;59.79;94048.53;5065496;23;19925;-72
2023/04/03 05:43:55;;;;;;;;;;;;;;;8.94;60.20;94047.09;5066390;23;20331;-71
2023/04/03 05:45:57;;;;;;;;;;;;;;;8.90;59.34;94049.19;5064682;23;19945;-73
2023/04/03 05:47:58;;;;;;;;;;;;;;;8.84;60.16;94047.28;5039880;23;19928;-73
2023/04/03 05:50:00;;;;;;;;;;;;;;;8.70;60.24;94042.69;5065991;23;19921;-73
2023/04/03 05:52:02;;;;;;;;;;;;;;;8.61;60.65;94042.69;5065683;23;19921;-72
2023/04/03 05:54:12;;;;;;;;;;;;;;;8.71;60.37;94044.31;5039671;23;20026;-71
2023/04/03 05:56:14;;;;;;;;;;;;;;;8.86;60.73;94034.03;5066310;23;19932;-73
2023/04/03 05:58:16;;;;;;;;;;;;;;;8.88;59.60;94038.09;5065156;23;19952;-71
2023/04/03 06:00:18;;;;;;;;;;;;;;;8.84;60.02;94031.59;5064964;23;19976;-72
2023/04/03 06:02:20;;;;;;;;;;;;;;;8.68;59.85;94034.22;5039410;23;19944;-71
2023/04/03 06:04:22;;;;;;;;;;;;;;;8.57;59.99;94038.78;5039866;23;19925;-73
2023/04/03 06:06:24;;;;;;;;;;;;;;;8.47;60.79;94043.31;5065547;23;19963;-73
2023/04/03 06:08:26;;;;;;;;;;;;;;;8.39;60.71;94030.25;5064766;23;19929;-71
2023/04/03 06:10:27;;;;;;;;;;;;;;;7.89;62.64;94031.13;5064767;23;20292;-71
2023/04/03 06:12:29;;;;;;;;;;;;;;;7.76;63.12;94016.75;5065630;23;19976;-70
2023/04/03 06:14:31;;;;;;;;;;;;;;;7.79;63.61;94021.66;5065134;23;19931;-71
2023/04/03 06:16:32;;;;;;;;;;;;;;;7.60;63.48;94016.72;5064986;23;20371;-74
2023/04/03 06:18:34;;;;;;;;;;;;;;;7.77;63.74;94012.38;5065425;23;19977;-74
2023/04/03 06:20:35;;;;;;;;;;;;;;;7.76;63.39;94008.94;5065791;23;19947;-73
2023/04/03 06:22:38;;;;;;;;;;;;;;;7.86;62.78;94010.59;5065840;23;19925;-71
2023/04/03 06:24:40;;;;;;;;;;;;;;;7.97;62.75;94015.50;5065067;23;20440;-72
2023/04/03 06:26:41;;;;;;;;;;;;;;;7.98;62.89;94022.38;5040061;23;20492;-72
2023/04/03 06:28:43;;;;;;;;;;;;;;;8.19;62.83;94027.97;5039737;23;19929;-74
2023/04/03 06:30:45;;;;;;;;;;;;;;;8.52;62.34;94020.19;5063114;23;19924;-70
2023/04/03 06:32:46;;;;;;;;;;;;;;;8.79;60.50;94019.00;5064970;23;19944;-72
2023/04/03 06:34:48;;;;;;;;;;;;;;;9.01;60.03;94011.47;5064908;23;19974;-72
2023/04/03 06:36:50;;;;;;;;;;;;;;;8.95;60.48;94023.41;5065192;23;19932;-75
2023/04/03 06:38:51;;;;;;;;;;;;;;;8.83;60.15;94029.94;5039576;23;20300;-72
2023/04/03 06:40:53;;;;;;;;;;;;;;;8.98;60.45;94030.09;5039322;23;19987;-72
2023/04/03 06:42:55;;;;;;;;;;;;;;;9.19;60.26;94032.19;5065513;23;19935;-72
2023/04/03 06:44:56;;;;;;;;;;;;;;;9.47;59.14;94037.03;5064929;23;20313;-73
2023/04/03 06:46:58;;;;;;;;;;;;;;;9.58;58.50;94029.63;5038765;23;20423;-74
2023/04/03 06:49:00;;;;;;;;;;;;;;;9.56;59.17;94033.38;5039503;23;19933;-72
2023/04/03 06:51:01;;;;;;;;;;;;;;;9.51;58.51;94030.47;5065751;23;19932;-74
2023/04/03 06:53:03;;;;;;;;;;;;;;;9.51;58.55;94033.91;5065810;23;19929;-74
2023/04/03 06:55:05;;;;;;;;;;;;;;;9.63;58.91;94037.75;5064822;23;19925;-73
2023/04/03 06:57:06;;;;;;;;;;;;;;;9.78;58.77;94035.25;5065090;23;19992;-72
2023/04/03 06:59:09;;;;;;;;;;;;;;;9.72;58.40;94045.56;5039381;23;19952;-71
2023/04/03 07:01:11;;;;;;;;;;;;;;;9.73;58.01;94042.81;5037533;23;19921;-75
2023/04/03 07:03:13;;;;;;;;;;;;;;;9.88;58.11;94040.28;5064691;23;20410;-75
2023/04/03 07:05:14;;;;;;;;;;;;;;;10.04;58.12;94040.22;5065626;23;19925;-80
2023/04/03 07:07:17;;;;;;;;;;;;;;;10.23;57.22;94038.94;5065900;23;19921;-79
2023/04/03 07:09:18;;;;;;;;;;;;;;;10.33;56.69;94038.75;5065674;23;20288;-75
2023/04/03 07:11:20;;;;;;;;;;;;;;;10.47;56.31;94039.00;5065209;23;19921;-76
2023/04/03 07:13:22;;;;;;;;;;;;;;;10.63;55.87;94036.25;5065417;23;19925;-77
2023/04/03 07:15:24;;;;;;;;;;;;;;;10.69;55.44;94027.72;5043441;23;20451;-77
2023/04/03 07:17:26;;;;;;;;;;;;;;;10.76;55.32;94018.16;5065238;23;19952;-77
2023/04/03 07:19:28;;;;;;;;;;;;;;;10.76;55.09;94019.97;5065350;23;19928;-78
2023/04/03 07:21:30;;;;;;;;;;;;;;;10.80;55.16;94026.47;5065564;23;20284;-78
2023/04/03 07:23:32;;;;;;;;;;;;;;;10.85;54.66;94024.94;5065418;23;19924;-75
2023/04/03 07:25:33;;;;;;;;;;;;;;;10.98;54.36;94013.84;5064882;23;19925;-78
2023/04/03 07:27:35;;;;;;;;;;;;;;;10.91;54.34;94015.56;5039044;23;19931;-72
2023/04/03 07:29:37;;;;;;;;;;;;;;;10.77;54.91;94025.00;5038472;23;20004;-74
2023/04/03 07:31:39;;;;;;;;;;;;;;;10.47;55.44;94024.09;5064263;23;19921;-73
2023/04/03 07:33:41;;;;;;;;;;;;;;;10.41;55.86;94014.31;5039878;23;19925;-72
2023/04/03 07:35:43;;;;;;;;;;;;;;;10.36;55.88;94014.03;5064562;23;19969;-72
2023/04/03 07:37:44;;;;;;;;;;;;;;;10.51;55.52;94014.09;5065196;23;20233;-73
2023/04/03 07:39:46;;;;;;;;;;;;;;;10.54;55.60;94008.47;5039195;23;20011;-72
2023/04/03 07:41:48;;;;;;;;;;;;;;;10.27;55.76;94009.81;5064386;23;19928;-73
2023/04/03 07:43:49;;;;;;;;;;;;;;;9.88;57.42;94003.66;5065024;23;20243;-73
2023/04/03 07:45:51;;;;;;;;;;;;;;;9.70;57.78;93998.69;5063112;23;19925;-74
2023/04/03 07:47:53;;;;;;;;;;;;;;;9.79;57.22;93992.41;5015252;23;19929;-74
2023/04/03 07:49:57;;;;;;;;;;;;;;;9.73;57.19;93987.06;5039373;23;20387;-74
2023/04/03 07:51:58;;;;;;;;;;;;;;;9.74;57.58;93989.50;5039068;23;19928;-73
2023/04/03 07:54:00;;;;;;;;;;;;;;;9.91;57.79;93997.25;5064911;23;19973;-73
2023/04/03 07:56:02;;;;;;;;;;;;;;;10.20;56.44;93996.59;5038330;23;19932;-74
2023/04/03 07:58:04;;;;;;;;;;;;;;;10.09;56.87;93996.97;5065170;23;20432;-72
2023/04/03 08:00:06;;;;;;;;;;;;;;;9.89;57.82;93991.38;5063821;23;19932;-74
2023/04/03 08:02:11;;;;;;;;;;;;;;;9.98;58.03;93982.50;5063372;23;19925;-74
2023/04/03 08:04:13;;;;;;;;;;;;;;;10.14;57.76;93986.84;5066779;23;19925;-76
2023/04/03 08:06:16;;;;;;;;;;;;;;;10.13;57.49;93986.03;5062356;23;20244;-74
2023/04/03 08:08:22;;;;;;;;;;;;;;;10.32;56.31;93983.94;5037699;23;19928;-78
2023/04/03 08:10:24;;;;;;;;;;;;;;;10.44;55.92;93983.34;5063561;23;20427;-75
2023/04/03 08:12:28;;;;;;;;;;;;;;;10.55;56.24;93976.91;5040478;23;20241;-76
2023/04/03 08:14:34;;;;;;;;;;;;;;;10.85;56.14;93977.78;5064893;23;20707;-78
2023/04/03 08:16:35;;;;;;;;;;;;;;;10.98;55.09;93978.97;5040837;23;19933;-78
2023/04/03 08:18:38;;;;;;;;;;;;;;;11.09;54.80;93975.09;5067881;23;20375;-81
2023/04/03 08:20:40;;;;;;;;;;;;;;;11.06;54.24;93974.47;5044056;23;19921;-78
2023/04/03 08:22:42;;;;;;;;;;;;;;;11.02;54.60;93981.06;5069954;23;19921;-80
2023/04/03 08:24:43;;;;;;;;;;;;;;;10.99;54.42;93977.97;5068757;23;19932;-78
2023/04/03 08:26:59;;;;;;;;;;;;;;;11.02;54.54;93975.81;5069156;23;20089;-75
2023/04/03 08:29:00;;;;;;;;;;;;;;;11.06;54.44;93971.03;5070396;23;19921;-78
2023/04/03 08:31:04;;;;;;;;;;;;;;;11.33;54.64;93971.38;5041882;23;19922;-81
2023/04/03 08:33:05;;;;;;;;;;;;;;;11.55;54.04;93974.91;5043193;23;20522;-81
2023/04/03 08:35:07;;;;;;;;;;;;;;;11.66;53.18;93969.22;5043105;23;19961;-78
2023/04/03 08:37:09;;;;;;;;;;;;;;;11.75;52.99;93965.47;5042290;23;19930;-78
2023/04/03 08:39:10;;;;;;;;;;;;;;;11.51;53.20;93957.91;5042576;23;19992;-77
2023/04/03 08:41:31;;;;;;;;;;;;;;;11.52;53.39;93955.09;5068194;23;19932;-80
2023/04/03 08:43:32;;;;;;;;;;;;;;;11.53;53.83;93946.25;5042051;23;20355;-77
2023/04/03 08:45:43;;;;;;;;;;;;;;;11.63;53.82;93951.19;5067392;23;20283;-77
2023/04/03 08:47:47;;;;;;;;;;;;;;;11.80;53.62;93949.97;5044555;23;19925;-79
2023/04/03 08:49:51;;;;;;;;;;;;;;;12.09;53.34;93951.75;5045311;23;19957;-80
2023/04/03 08:51:53;;;;;;;;;;;;;;;12.27;52.24;93948.69;5043202;23;19929;-79
2023/04/03 08:53:54;;;;;;;;;;;;;;;12.16;52.36;93951.81;5043034;23;20344;-79
2023/04/03 08:55:57;;;;;;;;;;;;;;;12.12;52.23;93950.56;5067187;23;20290;-75
2023/04/03 08:57:59;;;;;;;;;;;;;;;12.21;51.84;93944.16;5041366;23;20387;-80
2023/04/03 09:00:03;;;;;;;;;;;;;;;12.09;52.05;93935.19;5066051;23;19964;-77
2023/04/03 09:02:15;;;;;;;;;;;;;;;12.07;52.24;93932.75;5041827;23;19997;-79
2023/04/03 09:04:16;;;;;;;;;;;;;;;12.14;52.76;93932.81;5067844;23;19940;-77
2023/04/03 09:06:22;;;;;;;;;;;;;;;12.37;52.53;93924.75;5018825;23;19956;-77
2023/04/03 09:08:23;;;;;;;;;;;;;;;12.66;52.05;93920.31;5016590;23;19926;-78
2023/04/03 09:10:27;;;;;;;;;;;;;;;12.61;51.15;93925.34;5066009;23;20474;-80
2023/04/03 09:12:34;;;;;;;;;;;;;;;12.60;52.05;93916.63;5041857;23;19988;-77
2023/04/03 09:14:38;;;;;;;;;;;;;;;12.73;51.21;93917.72;5040313;23;19925;-78
2023/04/03 09:16:46;;;;;;;;;;;;;;;12.79;51.29;93903.84;5041253;23;19972;-77
2023/04/03 09:18:48;;;;;;;;;;;;;;;12.54;50.83;93911.31;5040850;23;20336;-76
2023/04/03 09:21:05;;;;;;;;;;;;;;;12.49;51.31;93904.00;5068821;23;19925;-76
2023/04/03 09:23:15;;;;;;;;;;;;;;;12.52;51.40;93908.06;5042325;23;19977;-78
2023/04/03 09:25:17;;;;;;;;;;;;;;;12.63;51.20;93899.69;5042852;23;19921;-81
2023/04/03 09:27:19;;;;;;;;;;;;;;;12.67;50.78;93896.47;5069052;23;19921;-77
2023/04/03 09:29:21;;;;;;;;;;;;;;;12.77;50.74;93893.50;5067197;23;19921;-76
2023/04/03 09:31:25;;;;;;;;;;;;;;;12.96;50.53;93893.84;5070214;23;19921;-79
2023/04/03 09:33:26;;;;;;;;;;;;;;;13.15;49.76;93890.50;5042765;23;19970;-77
2023/04/03 09:35:30;;;;;;;;;;;;;;;13.32;49.48;93888.38;5067706;23;20240;-78
2023/04/03 09:37:48;;;;;;;;;;;;;;;13.34;48.89;93885.56;5046379;23;19925;-77
2023/04/03 09:39:50;;;;;;;;;;;;;;;13.29;48.77;93886.97;5069339;23;20447;-77
2023/04/03 09:41:57;;;;;;;;;;;;;;;13.31;48.63;93884.13;5067974;23;19925;-77
2023/04/03 09:43:58;;;;;;;;;;;;;;;13.45;48.58;93882.38;5068548;23;20335;-79
2023/04/03 09:46:18;;;;;;;;;;;;;;;13.63;48.20;93880.00;5040659;23;19921;-79
2023/04/03 09:48:23;;;;;;;;;;;;;;;13.86;47.33;93877.03;5067873;23;19925;-79
2023/04/03 09:50:24;;;;;;;;;;;;;;;14.02;46.31;93877.66;5067671;23;19935;-77
2023/04/03 09:52:26;;;;;;;;;;;;;;;14.07;46.02;93867.34;5067701;23;19945;-76
2023/04/03 09:54:31;;;;;;;;;;;;;;;14.03;46.04;93879.31;5067425;23;19932;-79
2023/04/03 09:56:34;;;;;;;;;;;;;;;14.11;45.98;93872.03;5066978;23;19921;-76
2023/04/03 09:58:38;;;;;;;;;;;;;;;13.87;45.85;93873.41;5069344;23;20267;-77
2023/04/03 10:00:54;;;;;;;;;;;;;;;13.78;46.44;93864.03;5065117;23;19951;-80
2023/04/03 10:02:56;;;;;;;;;;;;;;;13.85;46.88;93864.06;5067708;23;19921;-77
2023/04/03 10:04:58;;;;;;;;;;;;;;;13.98;46.60;93868.53;5017776;23;19925;-76
2023/04/03 10:07:45;;;;;;;;;;;;;;;14.03;46.74;93866.94;5066735;23;19921;-83
2023/04/03 10:10:14;;;;;;;;;;;;;;;14.18;46.74;93864.13;4991444;23;20013;-76
2023/04/03 10:12:16;;;;;;;;;;;;;;;14.21;46.07;93860.28;4999291;23;20375;-79
2023/04/03 10:14:18;;;;;;;;;;;;;;;14.23;46.19;93860.88;5005990;23;19976;-74
2023/04/03 10:16:22;;;;;;;;;;;;;;;14.17;46.19;93861.69;5066762;23;19932;-80
2023/04/03 10:18:38;;;;;;;;;;;;;;;14.13;46.07;93858.63;5068317;23;19925;-75
2023/04/03 10:20:43;;;;;;;;;;;;;;;13.92;46.32;93868.34;5067549;23;19992;-81
2023/04/03 10:22:54;;;;;;;;;;;;;;;13.75;46.38;93858.38;5042578;23;19993;-76
2023/04/03 10:25:00;;;;;;;;;;;;;;;13.70;46.51;93854.53;5066977;23;19921;-77
2023/04/03 10:27:08;;;;;;;;;;;;;;;13.66;46.34;93855.94;5065995;23;19961;-79
2023/04/03 10:29:19;;;;;;;;;;;;;;;13.59;46.74;93849.00;5066919;23;19924;-78
2023/04/03 10:31:38;;;;;;;;;;;;;;;13.65;46.96;93846.41;5017831;23;20216;-76
2023/04/03 10:33:59;;;;;;;;;;;;;;;13.59;47.47;93846.38;5067086;23;19921;-79
2023/04/03 10:36:09;;;;;;;;;;;;;;;13.58;47.11;93840.31;5067371;23;19924;-79
2023/04/03 10:38:22;;;;;;;;;;;;;;;13.65;47.08;93841.13;5067746;23;19925;-80
2023/04/03 10:40:32;;;;;;;;;;;;;;;13.64;46.97;93833.47;5067255;23;19921;-78
2023/04/03 10:42:40;;;;;;;;;;;;;;;13.62;47.03;93831.00;5066708;23;20292;-78
2023/04/03 10:44:53;;;;;;;;;;;;;;;13.71;47.19;93831.66;5066313;23;19952;-80
2023/04/03 10:47:02;;;;;;;;;;;;;;;13.80;47.16;93829.63;5067006;23;19925;-77